Aitkin, MN

5:13 AM CDT on July 14, 2014 (GMT -0500)
Aitkin Municipal / Steve Kurtz Field (KAIT) Elev 1204 ft | 46.55 °N, 93.68 °W | Change Station

Current weather conditions updated 20 minutes ago

Overcast
Overcast
54 °F
Feels Like 54 °F
N
0
Wind Variable Wind from North

Today is forecast to be Much Cooler than yesterday. Chance of showers.

Today
High -- | Low -- °F
--% Chance of Precip.
Yesterday
High -- | Low -- °F
Precip. -- in
5:35 AM 9:05 PM
Waning Gibbous, 94% visible
Pressure 29.86 in
Visibility 10.0 miles
Clouds Scattered Clouds 4200 ft
Mostly Cloudy 6000 ft
Overcast 10000 ft
Dew Point 48 °F
Humidity 82%
Rainfall 0.10 in
Snow Depth Not available.
UV 0 out of 12
Pollen 4.50 out of 12
Air Quality Not available.
Flu Activity Sporadic
METAR KAIT 140953Z AUTO 00000KT 10SM SCT042 BKN060 OVC100 12/09 A2986 RMK AO2 P0003

More Conditions Fewer Conditions

Pressure 29.86 in
Visibility 10.0 miles
Clouds Scattered Clouds 4200 ft
Mostly Cloudy 6000 ft
Overcast 10000 ft
Dew Point 48 °F
Humidity 82%
Rainfall 0.10 in
Snow Depth Not available.
UV 0 out of 12
Pollen 4.50 out of 12
Air Quality Not available.
Flu Activity Sporadic
METAR KAIT 140953Z AUTO 00000KT 10SM SCT042 BKN060 OVC100 12/09 A2986 RMK AO2 P0003

More Conditions Fewer Conditions

10-Day Weather Forecast

Almanac

Astronomy

Jul. 14, 2014 Rise Set
Actual Time 5:35 AM CDT 9:05 PM CDT
Civil Twilight 4:58 AM CDT 9:42 PM CDT
Nautical Twilight 4:08 AM CDT 10:32 PM CDT
Astronomical Twilight 3:02 AM CDT 11:36 PM CDT
Moon 10:20 PM CDT 8:31 AM CDT
Length of Visible Light 16h 44m
Length of Day
15h 29m
Tomorrow will be 1m 44s shorter.
Waning Gibbous, 94% of the Moon is Illuminated
Today
Waning Gibbous
Jul 18
Last Quarter
Jul 26
New
Aug 3
First Quarter
Aug 10
Full

Today's Extremes

State Highs State Lows

Community

WunderPhotos

Upload Photos

1,733,593 photos uploaded!

Nearby

Snow Depth

Station Depth Elevation
No new snow has been reported.

Earthquake Activity

City Distance Mag. Time & Date
No recent earthquake activity has been reported nearby.
Minimum magnitude displayed is 2.5.

Coastal Water Temperatures

Place Temperature
No Stations Reporting

Nearby Weather Stations

Station Location Temp. Dew Point Humidity Wind Precip. Elev Updated Type
Bay Lake Woodland Beach, Deerwood, MN 53.8 °F 50 °F 86% ESE  at  4.7 mph - / hr 1289 ft 5:04 AM CDT Normal
Sherwood, Aitkin, MN 53.2 °F 50 °F 88% WNW  at  4.7 mph - / hr 1263 ft 5:06 AM CDT Normal
Emily, Emily, MN 50.4 °F 47 °F 90% NE  at  0.0 mph 0.00 in / hr 1302 ft 5:12 AM CDT Rapid Fire
RAWS RICE LAKE NWR MN, Tamarack, MN 53 °F 50 °F 90% WNW  at  7 mph 0.00 in / hr 1185 ft 3:52 AM CDT MADIS
Downtown Lougee, Merrifield, MN 54.8 °F 50 °F 84% NW  at  2.0 mph 0.00 in / hr 1194 ft 5:13 AM CDT Rapid Fire
Merrifield, MN 53.8 °F 49 °F 84% WNW  at  12.0 mph 0.00 in / hr 1227 ft 5:10 AM CDT Normal
RAWS BRAINERD MN, Brainerd, MN 58 °F 49 °F 72% NW  at  11 mph 0.00 in / hr 1220 ft 4:06 AM CDT MADIS

Show More Stations Show Fewer Stations